createdAt,value
2019-04-01T00:02:06.703Z,6.47
2019-04-01T00:04:38.476Z,6.56
2019-04-01T00:07:08.726Z,6.63
2019-04-01T00:09:40.208Z,6.57
2019-04-01T00:12:10.684Z,6.43
2019-04-01T00:14:40.355Z,6.29
2019-04-01T00:17:10.084Z,6.12
2019-04-01T00:19:39.810Z,5.96
2019-04-01T00:22:11.306Z,5.71
2019-04-01T00:24:41.851Z,5.60
2019-04-01T00:27:12.674Z,5.50
2019-04-01T00:29:42.362Z,5.40
2019-04-01T00:32:12.144Z,5.53
2019-04-01T00:34:41.904Z,5.77
2019-04-01T00:37:11.663Z,5.88
2019-04-01T00:39:43.863Z,6.07
2019-04-01T00:42:20.991Z,5.85
2019-04-01T00:44:50.717Z,5.80
2019-04-01T00:47:21.404Z,5.67
2019-04-01T00:49:52.178Z,5.52
2019-04-01T00:52:21.868Z,5.41
2019-04-01T00:54:51.456Z,5.30
2019-04-01T00:57:23.084Z,5.24
2019-04-01T00:59:52.910Z,5.28
2019-04-01T01:02:22.791Z,5.23
2019-04-01T01:04:52.598Z,5.21
2019-04-01T01:07:22.585Z,5.08
2019-04-01T01:09:52.412Z,5.06
2019-04-01T01:12:22.282Z,5.01
2019-04-01T01:14:52.096Z,5.00
2019-04-01T01:17:22.073Z,4.97
2019-04-01T01:19:51.764Z,4.91
2019-04-01T01:22:21.634Z,4.83
2019-04-01T01:24:51.368Z,4.74
2019-04-01T01:27:21.994Z,4.67
2019-04-01T01:29:52.708Z,4.96
2019-04-01T01:32:23.730Z,5.11
2019-04-01T01:34:53.505Z,5.07
2019-04-01T01:37:27.549Z,5.06
2019-04-01T01:39:57.768Z,5.14
2019-04-01T01:42:27.316Z,5.05
2019-04-01T01:44:57.174Z,4.94
2019-04-01T01:47:26.973Z,4.87
2019-04-01T01:49:56.691Z,4.71
2019-04-01T01:52:26.429Z,4.59
2019-04-01T01:54:56.212Z,4.47
2019-04-01T01:57:26.286Z,4.38
2019-04-01T01:59:56.887Z,4.32
2019-04-01T02:02:29.127Z,4.22
2019-04-01T02:04:59.077Z,4.20
2019-04-01T02:07:28.887Z,4.11
2019-04-01T02:09:59.006Z,4.04
2019-04-01T02:12:28.826Z,4.10
2019-04-01T02:14:58.583Z,4.13
2019-04-01T02:17:28.454Z,4.14
2019-04-01T02:19:58.210Z,4.11
2019-04-01T02:22:28.027Z,3.89
2019-04-01T02:24:57.843Z,3.78
2019-04-01T02:27:27.769Z,3.76
2019-04-01T02:29:57.543Z,3.77
2019-04-01T02:32:27.354Z,3.84
2019-04-01T02:34:57.675Z,3.78
2019-04-01T02:37:27.331Z,3.71
2019-04-01T02:39:57.056Z,3.72
2019-04-01T02:42:26.988Z,3.72
2019-04-01T02:44:56.890Z,3.78
2019-04-01T02:47:26.618Z,3.70
2019-04-01T02:49:56.518Z,3.69
2019-04-01T02:52:26.314Z,3.67
2019-04-01T02:54:58.471Z,3.70
2019-04-01T02:57:29.115Z,3.77
2019-04-01T02:59:58.988Z,3.75
2019-04-01T03:02:29.460Z,3.73
2019-04-01T03:04:59.387Z,3.69
2019-04-01T03:07:30.806Z,3.67
2019-04-01T03:10:00.778Z,3.65
2019-04-01T03:12:33.012Z,3.60
2019-04-01T03:15:02.857Z,3.60
2019-04-01T03:17:32.631Z,3.54
2019-04-01T03:20:03.348Z,3.49
2019-04-01T03:22:33.161Z,3.48
2019-04-01T03:25:02.827Z,3.40
2019-04-01T03:27:33.580Z,3.33
2019-04-01T03:30:03.405Z,3.36
2019-04-01T03:32:33.182Z,3.41
2019-04-01T03:35:03.123Z,3.43
2019-04-01T03:37:32.916Z,3.52
2019-04-01T03:40:03.003Z,3.62
2019-04-01T03:42:32.675Z,3.63
2019-04-01T03:45:02.527Z,3.63
2019-04-01T03:47:32.202Z,3.70
2019-04-01T03:50:02.287Z,3.71
2019-04-01T03:52:32.096Z,3.70
2019-04-01T03:55:01.893Z,3.65
2019-04-01T03:57:31.765Z,3.65
2019-04-01T04:00:01.756Z,3.66
2019-04-01T04:02:32.042Z,3.69
2019-04-01T04:05:01.740Z,3.68
2019-04-01T04:07:31.595Z,3.67
2019-04-01T04:10:02.555Z,3.74
2019-04-01T04:12:33.254Z,3.81
2019-04-01T04:15:03.084Z,3.79
2019-04-01T04:17:32.916Z,3.81
2019-04-01T04:20:03.281Z,3.81
2019-04-01T04:22:33.220Z,3.82
2019-04-01T04:25:02.971Z,3.78
2019-04-01T04:27:32.765Z,3.78
2019-04-01T04:30:02.560Z,3.82
2019-04-01T04:32:32.320Z,3.95
2019-04-01T04:35:02.023Z,3.93
2019-04-01T04:37:31.835Z,3.96
2019-04-01T04:40:01.614Z,4.05
2019-04-01T04:42:31.586Z,4.17
2019-04-01T04:45:01.480Z,4.17
2019-04-01T04:47:31.723Z,4.21
2019-04-01T04:50:01.377Z,4.23
2019-04-01T04:52:31.358Z,4.25
2019-04-01T04:55:01.043Z,4.35
2019-04-01T04:57:30.746Z,4.31
2019-04-01T05:00:00.448Z,4.40
2019-04-01T05:02:30.300Z,4.42
2019-04-01T05:05:00.428Z,4.58
2019-04-01T05:07:31.518Z,4.70
2019-04-01T05:10:02.225Z,4.84
2019-04-01T05:12:32.795Z,4.95
2019-04-01T05:15:02.478Z,5.05
2019-04-01T05:17:32.231Z,5.16
2019-04-01T05:20:01.880Z,5.18
2019-04-01T05:22:32.411Z,5.16
2019-04-01T05:25:02.896Z,5.14
2019-04-01T05:27:33.134Z,5.17
2019-04-01T05:30:05.553Z,5.22
2019-04-01T05:32:38.586Z,5.42
2019-04-01T05:35:10.660Z,6.14
2019-04-01T05:37:42.224Z,6.22
2019-04-01T05:40:12.786Z,6.16
2019-04-01T05:42:43.670Z,6.51
2019-04-01T05:45:15.165Z,7.02
2019-04-01T05:47:46.760Z,7.04
2019-04-01T05:50:17.523Z,7.03
2019-04-01T05:52:47.217Z,7.51
2019-04-01T05:55:19.496Z,7.58
2019-04-01T05:57:50.746Z,7.25
2019-04-01T06:00:22.625Z,6.88
2019-04-01T06:02:53.087Z,6.57
2019-04-01T06:05:24.489Z,6.34
2019-04-01T06:07:54.875Z,6.30
2019-04-01T06:10:26.505Z,6.32
2019-04-01T06:12:57.066Z,6.34
2019-04-01T06:15:27.178Z,6.40
2019-04-01T06:17:59.278Z,6.32
2019-04-01T06:20:29.864Z,6.33
2019-04-01T06:23:01.933Z,6.37
2019-04-01T06:25:34.339Z,6.40
2019-04-01T06:28:06.374Z,6.48
2019-04-01T06:30:37.913Z,6.60
2019-04-01T06:33:07.711Z,6.64
2019-04-01T06:35:39.327Z,6.64
2019-04-01T06:38:11.670Z,7.27
2019-04-01T06:40:42.241Z,7.50
2019-04-01T06:43:12.147Z,7.26
2019-04-01T06:45:42.825Z,7.12
2019-04-01T06:48:15.063Z,7.02
2019-04-01T06:50:45.700Z,7.04
2019-04-01T06:53:16.267Z,7.09
2019-04-01T06:55:46.088Z,7.16
2019-04-01T06:58:19.576Z,7.26
2019-04-01T07:00:50.107Z,7.29
2019-04-01T07:03:19.748Z,7.47
2019-04-01T07:05:49.402Z,7.55
2019-04-01T07:08:20.894Z,7.59
2019-04-01T07:10:50.746Z,7.69
2019-04-01T07:13:20.706Z,7.87
2019-04-01T07:15:51.650Z,7.89
2019-04-01T07:18:21.304Z,8.04
2019-04-01T07:20:51.956Z,8.12
2019-04-01T07:23:25.023Z,8.10
2019-04-01T07:25:57.640Z,8.35
2019-04-01T07:28:27.468Z,8.61
2019-04-01T07:30:57.607Z,8.65
2019-04-01T07:33:29.115Z,9.11
2019-04-01T07:36:01.354Z,9.14
2019-04-01T07:38:34.312Z,9.68
2019-04-01T07:41:05.307Z,10.01
2019-04-01T07:43:36.280Z,10.29
2019-04-01T07:46:08.154Z,10.93
2019-04-01T07:48:38.190Z,11.40
2019-04-01T07:51:11.324Z,11.49
2019-04-01T07:53:43.725Z,12.03
2019-04-01T07:56:13.888Z,12.74
2019-04-01T07:58:43.542Z,13.25
2019-04-01T08:01:13.264Z,13.20
2019-04-01T08:03:46.446Z,13.33
2019-04-01T08:06:16.255Z,13.57
2019-04-01T08:08:46.887Z,13.95
2019-04-01T08:11:16.532Z,14.25
2019-04-01T08:13:46.475Z,14.42
2019-04-01T08:16:18.934Z,14.53
2019-04-01T08:18:51.152Z,14.64
2019-04-01T08:21:21.648Z,14.77
2019-04-01T08:23:51.552Z,15.08
2019-04-01T08:26:21.462Z,15.28
2019-04-01T08:28:51.130Z,15.42
2019-04-01T08:31:24.133Z,15.68
2019-04-01T08:33:56.600Z,15.73
2019-04-01T08:36:28.172Z,15.93
2019-04-01T08:38:57.989Z,16.07
2019-04-01T08:41:30.194Z,16.18
2019-04-01T08:44:03.064Z,16.18
2019-04-01T08:46:32.051Z,15.87
2019-04-01T08:49:01.873Z,16.02
2019-04-01T08:51:31.589Z,16.26
2019-04-01T08:54:01.303Z,16.58
2019-04-01T08:56:30.796Z,16.66
2019-04-01T08:59:00.606Z,16.75
2019-04-01T09:01:35.524Z,16.85
2019-04-01T09:04:02.828Z,16.22
2019-04-01T09:06:32.738Z,16.47
2019-04-01T09:09:02.579Z,16.36
2019-04-01T09:11:32.411Z,16.19
2019-04-01T09:14:03.720Z,16.45
2019-04-01T09:16:36.081Z,16.62
2019-04-01T09:19:05.938Z,16.61
2019-04-01T09:21:38.296Z,16.33
2019-04-01T09:24:11.006Z,15.99
2019-04-01T09:26:40.846Z,15.91
2019-04-01T09:29:10.563Z,15.69
2019-04-01T09:31:40.626Z,15.51
2019-04-01T09:34:11.989Z,15.87
2019-04-01T09:36:41.814Z,15.94
2019-04-01T09:39:12.492Z,16.12
2019-04-01T09:41:42.142Z,16.16
2019-04-01T09:44:12.675Z,15.98
2019-04-01T09:46:42.383Z,15.88
2019-04-01T09:49:13.092Z,15.75
2019-04-01T09:51:48.870Z,15.98
2019-04-01T09:54:14.211Z,16.31
2019-04-01T09:56:45.729Z,16.05
2019-04-01T09:59:15.500Z,15.89
2019-04-01T10:01:47.170Z,15.88
2019-04-01T10:04:17.015Z,15.75
2019-04-01T10:06:46.970Z,15.86
2019-04-01T10:09:16.777Z,15.78
2019-04-01T10:11:47.647Z,16.11
2019-04-01T10:14:17.345Z,15.84
2019-04-01T10:16:47.148Z,15.78
2019-04-01T10:19:18.631Z,15.76
2019-04-01T10:21:48.316Z,15.73
2019-04-01T10:24:18.135Z,15.73
2019-04-01T10:26:47.903Z,15.64
2019-04-01T10:29:17.746Z,15.75
2019-04-01T10:31:47.686Z,15.71
2019-04-01T10:34:17.843Z,15.70
2019-04-01T10:36:47.544Z,15.54
2019-04-01T10:39:17.229Z,15.36
2019-04-01T10:41:47.103Z,15.57
2019-04-01T10:44:18.543Z,15.76
2019-04-01T10:46:48.527Z,15.64
2019-04-01T10:49:20.821Z,15.60
2019-04-01T10:51:53.399Z,15.62
2019-04-01T10:54:24.961Z,15.60
2019-04-01T10:56:54.801Z,15.43
2019-04-01T10:59:24.869Z,15.19
2019-04-01T11:01:54.728Z,15.12
2019-04-01T11:04:24.590Z,14.95
2019-04-01T11:06:57.592Z,14.76
2019-04-01T11:09:38.077Z,14.81
2019-04-01T11:11:58.951Z,14.97
2019-04-01T11:14:28.691Z,14.82
2019-04-01T11:16:58.551Z,14.81
2019-04-01T11:19:28.800Z,14.60
2019-04-01T11:21:59.494Z,14.43
2019-04-01T11:24:29.416Z,14.61
2019-04-01T11:26:59.069Z,14.69
2019-04-01T11:29:28.791Z,14.67
2019-04-01T11:31:58.599Z,14.60
2019-04-01T11:34:28.467Z,14.65
2019-04-01T11:36:58.324Z,14.72
2019-04-01T11:39:28.186Z,14.55
2019-04-01T11:42:01.585Z,14.46
2019-04-01T11:44:31.615Z,14.43
2019-04-01T11:47:01.979Z,14.54
2019-04-01T11:49:32.159Z,14.82
2019-04-01T11:52:01.875Z,14.82
2019-04-01T11:54:31.666Z,14.90
2019-04-01T11:57:01.489Z,15.02
2019-04-01T11:59:31.252Z,14.81
2019-04-01T12:02:03.017Z,14.61
2019-04-01T12:04:33.142Z,14.70
2019-04-01T12:07:02.932Z,14.80
2019-04-01T12:09:32.799Z,14.67
2019-04-01T12:12:04.186Z,14.66
2019-04-01T12:14:34.271Z,14.72
2019-04-01T12:17:04.085Z,14.55
2019-04-01T12:19:36.276Z,14.66
2019-04-01T12:22:05.918Z,14.84
2019-04-01T12:24:35.716Z,14.82
2019-04-01T12:27:05.511Z,14.70
2019-04-01T12:29:35.304Z,14.78
2019-04-01T12:32:05.109Z,14.84
2019-04-01T12:34:38.173Z,14.76
2019-04-01T12:37:07.949Z,14.77
2019-04-01T12:39:37.864Z,14.89
2019-04-01T12:42:07.735Z,14.99
2019-04-01T12:44:37.750Z,14.99
2019-04-01T12:47:07.596Z,15.11
2019-04-01T12:49:37.286Z,15.30
2019-04-01T12:52:06.963Z,15.16
2019-04-01T12:54:36.968Z,15.16
2019-04-01T12:57:06.886Z,15.10
2019-04-01T12:59:36.637Z,15.12
2019-04-01T13:02:06.447Z,15.10
2019-04-01T13:04:36.361Z,15.12
2019-04-01T13:07:06.198Z,14.93
2019-04-01T13:09:36.088Z,14.94
2019-04-01T13:12:06.074Z,14.92
2019-04-01T13:14:35.865Z,15.01
2019-04-01T13:17:05.822Z,15.19
2019-04-01T13:19:35.716Z,15.21
2019-04-01T13:22:05.495Z,15.19
2019-04-01T13:24:35.568Z,15.41
2019-04-01T13:27:08.937Z,15.55
2019-04-01T13:29:37.304Z,15.44
2019-04-01T13:32:07.193Z,15.28
2019-04-01T13:34:36.857Z,15.38
2019-04-01T13:37:06.768Z,15.52
2019-04-01T13:39:36.603Z,15.62
2019-04-01T13:42:08.336Z,15.79
2019-04-01T13:44:39.703Z,15.68
2019-04-01T13:47:09.707Z,15.65
2019-04-01T13:49:39.869Z,15.68
2019-04-01T13:52:10.658Z,15.81
2019-04-01T13:54:41.407Z,15.78
2019-04-01T13:57:13.069Z,15.33
2019-04-01T13:59:49.523Z,16.10
2019-04-01T14:02:14.452Z,16.07
2019-04-01T14:04:45.056Z,15.89
2019-04-01T14:07:14.945Z,15.89
2019-04-01T14:09:44.896Z,15.58
2019-04-01T14:12:14.858Z,15.47
2019-04-01T14:14:44.805Z,15.51
2019-04-01T14:17:14.632Z,15.41
2019-04-01T14:19:44.362Z,15.21
2019-04-01T14:22:14.134Z,15.28
2019-04-01T14:24:45.251Z,15.25
2019-04-01T14:27:15.507Z,15.03
2019-04-01T14:29:46.055Z,14.97
2019-04-01T14:32:18.026Z,14.99
2019-04-01T14:34:50.288Z,14.93
2019-04-01T14:37:25.912Z,14.93
2019-04-01T14:39:51.539Z,14.80
2019-04-01T14:42:21.329Z,14.78
2019-04-01T14:44:58.802Z,14.99
2019-04-01T14:47:29.407Z,15.05
2019-04-01T14:49:59.642Z,14.99
2019-04-01T14:52:32.741Z,14.92
2019-04-01T14:55:02.405Z,14.76
2019-04-01T14:57:32.466Z,14.97
2019-04-01T15:00:04.522Z,15.05
2019-04-01T15:02:35.009Z,14.81
2019-04-01T15:05:06.027Z,14.64
2019-04-01T15:07:36.183Z,14.48
2019-04-01T15:10:07.440Z,14.62
2019-04-01T15:12:37.648Z,14.57
2019-04-01T15:15:09.182Z,14.32
2019-04-01T15:17:39.881Z,14.26
2019-04-01T15:20:09.941Z,14.24
2019-04-01T15:22:40.714Z,14.23
2019-04-01T15:25:11.181Z,14.18
2019-04-01T15:27:42.178Z,14.08
2019-04-01T15:30:14.063Z,14.15
2019-04-01T15:32:44.243Z,14.24
2019-04-01T15:35:14.428Z,14.23
2019-04-01T15:37:44.268Z,14.12
2019-04-01T15:40:14.886Z,14.16
2019-04-01T15:42:44.709Z,14.13
2019-04-01T15:45:14.918Z,14.07
2019-04-01T15:47:45.543Z,13.90
2019-04-01T15:50:27.705Z,14.06
2019-04-01T15:52:47.893Z,14.00
2019-04-01T15:55:17.798Z,13.98
2019-04-01T15:57:47.926Z,13.88
2019-04-01T16:00:19.679Z,13.77
2019-04-01T16:02:50.536Z,13.72
2019-04-01T16:05:22.123Z,13.67
2019-04-01T16:07:52.092Z,13.51
2019-04-01T16:10:21.987Z,13.24
2019-04-01T16:12:51.774Z,13.25
2019-04-01T16:15:24.358Z,13.26
2019-04-01T16:17:54.522Z,13.02
2019-04-01T16:20:26.028Z,12.94
2019-04-01T16:22:56.218Z,13.20
2019-04-01T16:25:26.026Z,13.07
2019-04-01T16:27:56.230Z,12.88
2019-04-01T16:30:27.197Z,12.86
2019-04-01T16:32:58.547Z,13.02
2019-04-01T16:35:29.681Z,13.01
2019-04-01T16:37:59.958Z,13.00
2019-04-01T16:40:31.166Z,12.99
2019-04-01T16:43:00.966Z,12.73
2019-04-01T16:45:30.767Z,12.43
2019-04-01T16:48:00.789Z,12.31
2019-04-01T16:50:30.623Z,12.19
2019-04-01T16:53:00.464Z,12.28
2019-04-01T16:55:30.020Z,12.25
2019-04-01T16:58:00.632Z,12.19
2019-04-01T17:00:30.432Z,12.07
2019-04-01T17:03:01.485Z,11.93
2019-04-01T17:05:33.430Z,11.90
2019-04-01T17:08:03.454Z,11.80
2019-04-01T17:10:33.566Z,11.95
2019-04-01T17:13:03.525Z,11.78
2019-04-01T17:15:33.338Z,11.71
2019-04-01T17:18:03.169Z,11.69
2019-04-01T17:20:33.229Z,11.49
2019-04-01T17:23:03.037Z,11.35
2019-04-01T17:25:32.863Z,11.38
2019-04-01T17:28:02.978Z,11.35
2019-04-01T17:30:32.854Z,10.72
2019-04-01T17:33:02.707Z,11.06
2019-04-01T17:35:33.518Z,11.00
2019-04-01T17:38:06.301Z,11.00
2019-04-01T17:40:37.027Z,11.00
2019-04-01T17:43:09.326Z,11.07
2019-04-01T17:45:40.327Z,10.80
2019-04-01T17:48:13.758Z,10.62
2019-04-01T17:50:44.704Z,10.51
2019-04-01T17:53:15.900Z,10.62
2019-04-01T17:55:48.618Z,10.50
2019-04-01T17:58:18.815Z,10.47
2019-04-01T18:01:00.223Z,10.46
2019-04-01T18:03:30.276Z,10.53
2019-04-01T18:06:00.184Z,10.35
2019-04-01T18:08:30.377Z,10.38
2019-04-01T18:11:01.342Z,10.29
2019-04-01T18:13:32.506Z,10.31
2019-04-01T18:16:03.348Z,10.40
2019-04-01T18:18:34.197Z,10.28
2019-04-01T18:21:05.203Z,10.34
2019-04-01T18:23:36.189Z,10.21
2019-04-01T18:26:06.323Z,10.13
2019-04-01T18:28:36.182Z,10.08
2019-04-01T18:31:06.163Z,9.94
2019-04-01T18:33:36.555Z,9.86
2019-04-01T18:36:07.754Z,9.94
2019-04-01T18:38:40.815Z,9.91
2019-04-01T18:41:10.774Z,9.94
2019-04-01T18:43:40.784Z,10.06
2019-04-01T18:46:10.604Z,10.05
2019-04-01T18:48:40.585Z,10.08
2019-04-01T18:51:10.980Z,10.01
2019-04-01T18:53:41.975Z,10.01
2019-04-01T18:56:11.702Z,10.04
2019-04-01T18:58:41.510Z,10.00
2019-04-01T19:01:11.404Z,9.91
2019-04-01T19:03:43.099Z,9.96
2019-04-01T19:06:15.520Z,9.81
2019-04-01T19:08:45.303Z,9.60
2019-04-01T19:11:16.287Z,9.80
2019-04-01T19:13:47.780Z,9.79
2019-04-01T19:16:17.601Z,9.75
2019-04-01T19:18:47.450Z,9.71
2019-04-01T19:21:17.220Z,9.51
2019-04-01T19:23:48.720Z,9.34
2019-04-01T19:26:18.778Z,9.30
2019-04-01T19:28:50.840Z,9.29
2019-04-01T19:31:23.240Z,9.17
2019-04-01T19:33:53.222Z,8.97
2019-04-01T19:36:23.232Z,8.89
2019-04-01T19:38:54.315Z,8.77
2019-04-01T19:41:24.379Z,8.67
2019-04-01T19:43:54.221Z,8.64
2019-04-01T19:46:24.562Z,8.56
2019-04-01T19:48:54.461Z,8.45
2019-04-01T19:51:24.245Z,8.31
2019-04-01T19:53:54.029Z,8.19
2019-04-01T19:56:23.941Z,8.04
2019-04-01T19:58:54.156Z,7.94
2019-04-01T20:01:25.205Z,7.83
2019-04-01T20:03:55.062Z,7.75
2019-04-01T20:06:24.916Z,7.66
2019-04-01T20:08:55.756Z,7.58
2019-04-01T20:11:28.736Z,7.53
2019-04-01T20:14:00.733Z,7.53
2019-04-01T20:16:32.515Z,7.50
2019-04-01T20:19:02.305Z,7.45
2019-04-01T20:21:32.585Z,7.44
2019-04-01T20:24:02.732Z,7.24
2019-04-01T20:26:34.076Z,6.99
2019-04-01T20:29:03.910Z,6.94
2019-04-01T20:31:33.655Z,6.91
2019-04-01T20:34:04.413Z,6.88
2019-04-01T20:36:34.937Z,6.86
2019-04-01T20:39:07.556Z,6.82
2019-04-01T20:41:37.669Z,6.83
2019-04-01T20:44:07.437Z,6.81
2019-04-01T20:46:39.098Z,6.73
2019-04-01T20:49:11.469Z,6.68
2019-04-01T20:51:41.330Z,6.60
2019-04-01T20:54:11.158Z,6.59
2019-04-01T20:56:41.036Z,6.52
2019-04-01T20:59:10.875Z,6.50
2019-04-01T21:01:40.655Z,6.58
2019-04-01T21:04:10.404Z,6.51
2019-04-01T21:06:40.133Z,6.46
2019-04-01T21:09:10.512Z,6.29
2019-04-01T21:11:40.351Z,6.16
2019-04-01T21:14:10.334Z,6.10
2019-04-01T21:16:40.155Z,6.03
2019-04-01T21:19:10.377Z,5.80
2019-04-01T21:21:40.957Z,5.66
2019-04-01T21:24:10.759Z,5.62
2019-04-01T21:26:40.433Z,5.48
2019-04-01T21:29:10.821Z,5.54
2019-04-01T21:31:40.617Z,5.60
2019-04-01T21:34:11.195Z,5.63
2019-04-01T21:36:40.994Z,5.64
2019-04-01T21:39:10.798Z,5.66
2019-04-01T21:41:40.277Z,5.77
2019-04-01T21:44:10.346Z,5.75
2019-04-01T21:46:40.088Z,5.62
2019-04-01T21:49:09.836Z,5.55
2019-04-01T21:51:39.908Z,5.52
2019-04-01T21:54:09.674Z,5.47
2019-04-01T21:56:39.345Z,5.46
2019-04-01T21:59:09.134Z,5.49
2019-04-01T22:01:38.954Z,5.48
2019-04-01T22:04:11.054Z,5.45
2019-04-01T22:06:41.471Z,5.52
2019-04-01T22:09:11.739Z,5.52
2019-04-01T22:11:41.382Z,5.48
2019-04-01T22:14:11.152Z,5.41
2019-04-01T22:16:41.025Z,5.32
2019-04-01T22:19:12.066Z,5.31
2019-04-01T22:21:42.238Z,5.19
2019-04-01T22:24:12.135Z,5.20
2019-04-01T22:26:42.055Z,5.04
2019-04-01T22:29:13.053Z,4.98
2019-04-01T22:31:44.171Z,4.95
2019-04-01T22:34:14.266Z,5.00
2019-04-01T22:36:47.996Z,4.99
2019-04-01T22:39:26.905Z,4.89
2019-04-01T22:41:49.754Z,4.81
2019-04-01T22:44:19.436Z,4.78
2019-04-01T22:46:49.491Z,4.59
2019-04-01T22:49:19.276Z,4.50
2019-04-01T22:51:49.054Z,4.49
2019-04-01T22:54:18.855Z,4.44
2019-04-01T22:56:48.615Z,4.46
2019-04-01T22:59:19.273Z,4.38
2019-04-01T23:01:49.996Z,4.38
2019-04-01T23:04:19.775Z,4.38
2019-04-01T23:06:49.501Z,4.28
2019-04-01T23:09:19.415Z,4.31
2019-04-01T23:11:49.162Z,4.35
2019-04-01T23:14:18.788Z,4.37
2019-04-01T23:16:48.597Z,4.41
2019-04-01T23:19:18.360Z,4.45
2019-04-01T23:21:50.520Z,4.45
2019-04-01T23:24:20.449Z,4.43
2019-04-01T23:26:50.307Z,4.54
2019-04-01T23:29:20.063Z,4.50
2019-04-01T23:31:49.853Z,4.53
2019-04-01T23:34:22.089Z,4.47
2019-04-01T23:36:52.008Z,4.44
2019-04-01T23:39:21.698Z,4.45
2019-04-01T23:41:52.937Z,4.51
2019-04-01T23:44:23.453Z,4.56
2019-04-01T23:46:53.656Z,4.66
2019-04-01T23:49:24.353Z,4.69
2019-04-01T23:51:54.871Z,4.75
2019-04-01T23:54:25.138Z,4.69
2019-04-01T23:56:56.223Z,4.71
2019-04-01T23:59:26.679Z,4.82
